x

New London Ledge Ct - Ledge Light Weather Station (ldlc3) Weather Station

1:55am - Mon 20th Nov 2017 All times are EST. -5 hours from GMT.

  • Wind
    20mph, 24mph gusts
  • Air Temp 41°f
  • Sea Pressure 1006.7mb
  • New London Ledge Ct - Ledge Light Weather Station
  • New London Ledge Ct - Ledge Light Weather Station

More Historic Weather Station data

Upgrade to MSW Pro to gain access to the past 30 days of data for over 8000 Wavebouys and Weather Stations around the globe.

Join

Comparision Forecast

View Surf forecast
   
Mon 11/20 1:55am 20 24 mph 1006.7mb 41f
1:45am 18 24 mph 1006.6mb 41f
1:30am 23 29 mph 1006.3mb 41f
1:15am 23 29 mph 1006.2mb 42f
1:00am 21 28 mph 1006mb 41f
12:45am 17 24 mph 1005.9mb 41f
12:30am 17 21 mph 1005.7mb 41f
12:15am 17 22 mph 1005.6mb 41f
Sun 11/19 6:45pm 20 25 mph 1001.9mb 44f
6:30pm 20 24 mph 1001.9mb 45f
6:00pm 21 26 mph 1001.3mb 45f
5:45pm 20 28 mph 1000.9mb 45f
5:30pm 25 32 mph 1000.4mb 45f
5:15pm 21 30 mph 999.7mb 46f
5:00pm 24 30 mph 999.2mb 46f
4:20pm 25 31 mph 998mb 47f
4:15pm 31 38 mph 997.8mb 47f
4:00pm 32 44 mph 997.4mb 48f
3:45pm 21 28 mph 997.2mb 49f
3:25pm 21 29 mph 996.6mb 49f
3:15pm 23 30 mph 996.4mb 49f
2:55pm 29 38 mph 995.3mb 50f
2:45pm 30 38 mph 995mb 50f
2:30pm 28 34 mph 994.9mb 50f
2:15pm 23 32 mph 994.7mb 51f
1:55pm 26 33 mph 994.3mb 50f
1:40pm 31 39 mph 993.8mb 51f
1:30pm 29 38 mph 993.6mb 52f
1:15pm 25 36 mph 993.3mb 51f
1:00pm 31 41 mph 992.7mb 51f
12:45pm 30 37 mph 992.6mb 52f
12:25pm 29 38 mph 992mb 53f
12:15pm 30 41 mph 991.5mb 53f
12:00pm 24 29 mph 991.4mb 54f
11:40am 24 31 mph 991mb 54f
11:30am 24 29 mph 990.8mb 54f
11:15am 28 37 mph 990.4mb 55f
11:00am 33 43 mph 989.4mb 57f
10:40am 43 51 mph 988.3mb 57f
10:25am 40 47 mph 987.9mb 57f
10:15am 40 48 mph 987.7mb 58f
9:55am 33 39 mph 988mb 57f
8:50am 36 40 mph 988.1mb 58f
8:40am 34 43 mph 988mb 59f
8:25am 36 43 mph 987.8mb 59f
8:15am 36 43 mph 988.2mb 59f
7:55am 36 44 mph 988.6mb 58f
7:40am 36 43 mph 988.7mb 59f
7:30am 34 40 mph 988.7mb 59f
7:10am 37 44 mph 989mb 59f
7:00am 33 40 mph 989mb 59f
6:10am 34 43 mph 989.7mb 59f
6:00am 32 39 mph 989.8mb 59f
5:45am 31 36 mph 990mb 59f
5:25am 32 38 mph 990.2mb 59f
5:15am 34 41 mph 990.4mb 59f
5:00am 33 39 mph 990.7mb 60f
4:45am 32 38 mph 991.1mb 59f
4:30am 31 38 mph 991.3mb 59f
4:15am 32 38 mph 991.6mb 60f
3:55am 32 39 mph 992mb 60f
3:45am 30 34 mph 992mb 61f
3:25am 29 34 mph 992.5mb 61f
2:55am 28 34 mph 993.1mb 60f
2:45am 28 31 mph 993.2mb 60f
2:30am 28 34 mph 993.7mb 60f
2:15am 29 34 mph 994mb 60f
2:00am 28 32 mph 994.4mb 60f
1:40am 29 32 mph 994.6mb 60f
1:30am 26 31 mph 994.6mb 60f
12:40am 30 36 mph 995.8mb 60f
12:30am 28 31 mph 996.1mb 59f
12:15am 28 32 mph 996.5mb 59f
12:00am 25 29 mph 996.8mb 58f
Sat 11/18 6:25pm 23 25 mph 1003.1mb 56f
6:10pm 23 26 mph 1003.2mb 56f
5:55pm 22 26 mph 1003.4mb 56f
5:40pm 23 25 mph 1003.6mb 56f
5:30pm 23 29 mph 1003.6mb 56f
5:15pm 23 26 mph 1003.7mb 56f
5:00pm 25 29 mph 1003.8mb 56f
4:45pm 25 29 mph 1004mb 56f
4:30pm 26 31 mph 1004.2mb 56f
3:35pm 24 29 mph 1005.1mb 55f
3:25pm 23 26 mph 1005.1mb 55f
3:15pm 23 29 mph 1005.2mb 54f
3:00pm 23 25 mph 1005.7mb 54f
2:40pm 23 29 mph 1006.2mb 54f
2:25pm 23 26 mph 1006.6mb 54f
1:00pm 11 14 mph 1008.7mb 50f
12:40pm 15 17 mph 1009.3mb 50f
12:25pm 17 20 mph 1009.7mb 50f
12:10pm 15 17 mph 1009.8mb 49f
12:00pm 14 17 mph 1009.8mb 49f
11:40am 14 16 mph 1010.3mb 49f
11:30am 15 18 mph 1010.6mb 48f
11:10am 15 18 mph 1011.3mb 48f
10:55am 16 17 mph 1011.8mb 47f
10:40am 17 21 mph 1012.1mb 47f
10:25am 17 20 mph 1012.5mb 47f
10:10am 14 16 mph 1012.8mb 47f
9:55am 11 14 mph 1012.6mb 46f
9:45am 5 10 mph 1012.9mb 43f
9:25am 3 5 mph 1013.2mb 40f
8:50am 6 7 mph 1014.2mb 39f
8:45am 5 6 mph 1014.2mb 39f
8:30am 5 6 mph 1014.3mb 39f
8:10am 5 6 mph 1014.5mb 38f
7:55am 3 6 mph 1014.4mb 38f
7:40am 5 7 mph 1014.7mb 38f
7:25am 7 9 mph 1014.7mb 37f
7:15am 7 9 mph 1014.8mb 35f
6:55am 8 8 mph 1014.7mb 35f
6:40am 8 9 mph 1014.9mb 34f
6:30am 7 9 mph 1014.9mb 34f
6:15am 9 10 mph 1014.6mb 34f
6:00am 8 10 mph 1014.6mb 35f
5:40am 8 9 mph 1014.9mb 34f
5:25am 6 7 mph 1015.1mb 35f
5:10am 3 6 mph 1014.9mb 34f
5:00am 3 7 mph 1014.7mb 35f
4:45am 6 7 mph 1014.7mb 35f
4:25am 7 8 mph 1015.1mb 35f
4:15am 10 11 mph 1015.2mb 36f
4:00am 10 13 mph 1015.2mb 36f
3:40am 6 7 mph 1015.1mb 35f
3:25am 5 6 mph 1015.1mb 35f
3:15am 5 7 mph 1015.2mb 35f
3:00am 6 7 mph 1015.5mb 35f
2:40am 9 10 mph 1015.9mb 35f
2:25am 9 11 mph 1016mb 36f
1:45am 10 13 mph 1016.4mb 36f
1:40am 9 11 mph 1016.3mb 36f
1:30am 7 9 mph 1016mb 37f
1:15am 7 9 mph 1016mb 37f
12:55am 7 9 mph 1016.3mb 36f
12:40am 9 11 mph 1016.4mb 37f
12:30am 9 13 mph 1016.5mb 37f
12:15am 14 17 mph 1016.4mb 37f
Fri 11/17 6:45pm 13 15 mph 1016mb 41f
6:25pm 8 9 mph 1016.2mb 41f
6:15pm 10 13 mph 1016.2mb 41f
5:55pm 8 11 mph 1016.3mb 42f
5:45pm 9 13 mph 1016.2mb 42f
5:30pm 10 15 mph 1016.1mb 42f
5:15pm 16 20 mph 1015.7mb 43f
5:00pm 14 16 mph 1015.7mb 43f
4:45pm 14 17 mph 1015.4mb 43f
4:30pm 18 23 mph 1015.2mb 43f
4:15pm 21 30 mph 1015.1mb 44f
4:00pm 18 25 mph 1014.8mb 44f
3:45pm 17 24 mph 1014.8mb 44f
3:30pm 21 28 mph 1014.3mb 44f
3:15pm 22 28 mph 1014.2mb 44f
3:00pm 22 26 mph 1013.9mb 44f
2:45pm 24 32 mph 1013.6mb 44f
2:30pm 28 34 mph 1013.5mb 44f
2:15pm 24 30 mph 1013.5mb 44f
2:00pm 21 25 mph 1013.4mb 44f
1:45pm 28 32 mph 1013.2mb 44f
1:30pm 28 34 mph 1012.9mb 44f
1:15pm 23 30 mph 1012.9mb 44f
1:00pm 18 24 mph 1013.1mb 44f
12:45pm 21 30 mph 1013.1mb 44f
12:30pm 20 25 mph 1013.1mb 44f
12:15pm 21 29 mph 1013.1mb 44f
12:00pm 26 33 mph 1012.9mb 43f
11:45am 24 30 mph 1012.9mb 43f
11:30am 21 30 mph 1013.3mb 43f
11:15am 32 41 mph 1013.2mb 42f
11:00am 23 32 mph 1013.4mb 42f
10:45am 29 37 mph 1013.5mb 41f
10:30am 23 32 mph 1013.8mb 42f
10:15am 23 29 mph 1013.7mb 41f
10:00am 26 39 mph 1013.7mb 41f
9:45am 25 31 mph 1013.7mb 41f
9:30am 29 37 mph 1013.3mb 41f
9:15am 25 32 mph 1013.3mb 41f
9:00am 25 33 mph 1013.1mb 41f
8:45am 30 36 mph 1012.9mb 40f
8:30am 26 34 mph 1012.9mb 40f
8:15am 22 30 mph 1012.9mb 40f
8:00am 22 32 mph 1013mb 40f
7:45am 24 31 mph 1012.9mb 40f
7:30am 23 31 mph 1012.8mb 40f
7:15am 22 33 mph 1012.5mb 40f
7:00am 23 30 mph 1012mb 40f
6:45am 24 39 mph 1011.6mb 40f
6:30am 22 31 mph 1011.3mb 40f
6:15am 25 32 mph 1010.9mb 40f
6:00am 24 31 mph 1010.8mb 40f
5:45am 26 38 mph 1010.4mb 41f
5:30am 26 39 mph 1010.2mb 41f
5:15am 33 41 mph 1009.5mb 42f
5:00am 26 37 mph 1009.5mb 42f
4:45am 18 23 mph 1009.5mb 42f
4:30am 18 24 mph 1009.2mb 42f
4:15am 18 26 mph 1009.1mb 43f
4:00am 23 31 mph 1008.6mb 43f
3:45am 21 28 mph 1008.6mb 43f
3:30am 21 28 mph 1008.6mb 43f
3:15am 18 22 mph 1008.8mb 43f
3:00am 17 23 mph 1009.1mb 43f
2:45am 24 30 mph 1008.7mb 44f
2:30am 21 26 mph 1008.7mb 44f
2:15am 21 26 mph 1008.7mb 44f
2:00am 21 25 mph 1008.6mb 44f
1:45am 21 25 mph 1008.3mb 44f
1:30am 20 24 mph 1008.2mb 44f
1:15am 20 24 mph 1008mb 44f
1:00am 20 24 mph 1008mb 44f
12:45am 17 22 mph 1008mb 44f
12:30am 16 22 mph 1007.9mb 44f
12:15am 14 16 mph 1007.9mb 44f
12:00am 15 20 mph 1008mb 44f
Thu 11/16 6:45pm 18 22 mph 1006.9mb 49f
6:30pm 18 23 mph 1006.9mb 50f
6:15pm 17 21 mph 1006.9mb 50f
6:00pm 17 22 mph 1006.8mb 51f
5:45pm 20 23 mph 1006.3mb 51f
5:30pm 15 23 mph 1006mb 51f
5:15pm 15 20 mph 1005.9mb 50f
5:00pm 32
mph
1005.5mb 53f
4:45pm 14 15 mph 1005.6mb 54f
4:30pm 13 16 mph 1005.4mb 54f
4:15pm 13 15 mph 1005.3mb 54f
4:00pm 10 11 mph 1005.3mb 54f
3:45pm 15 17 mph 1005.2mb 54f
3:30pm 16 20 mph 1005mb 54f
3:15pm 16 20 mph 1005.2mb 54f
3:00pm 20 23 mph 1005.2mb 54f
2:45pm 17 21 mph 1005.3mb 54f
2:30pm 15 17 mph 1005.4mb 54f
2:15pm 9 14 mph 1005.4mb 54f
2:00pm 8 10 mph 1005.7mb 53f
1:45pm 6 7 mph 1005.5mb 54f
1:30pm 6 7 mph 1005.7mb 52f
1:15pm 7 8 mph 1006.1mb 52f
1:00pm 7 9 mph 1006.5mb 52f
12:45pm 7 8 mph 1006.6mb 52f
12:30pm 9 10 mph 1006.8mb 52f
12:15pm 10 11 mph 1007mb 52f
12:00pm 13 14 mph 1007.5mb 52f
11:45am 14 16 mph 1008mb 51f
11:30am 14 16 mph 1008.4mb 50f
11:15am 22 28 mph 1008mb 55f
11:00am 31 34 mph 1007.4mb 55f
10:45am 30 37 mph 1008mb 55f
10:30am 30 33 mph 1008.4mb 55f
10:15am 29 32 mph 1009.2mb 55f
10:00am 30 33 mph 1009.3mb 54f
9:45am 30 34 mph 1009.6mb 55f
9:30am 30 32 mph 1009.8mb 55f
9:15am 26 31 mph 1010.1mb 55f
9:00am 30 34 mph 1010.2mb 55f
8:45am 30 36 mph 1010.5mb 55f
8:30am 31 34 mph 1010.7mb 55f
8:15am 28 32 mph 1011mb 55f
8:00am 28 32 mph 1011.3mb 54f